Rio Medina, Texas
Current Conditions -  °F | °C
As of 2:15 PM on Saturday 25 Oct 2014 (Local Time) from KCVB Reporting Station
Clear Clear  
Wind Chill: 88°   Ceiling: Unl
Heat Index: 88°   Visibility: 7mi
Dew Point: 53°   Wind: 3mph
Humidity: 30%   Direction: 310°NW
Pressure: 30.14"   Gusts: NA
Location:  29.44°N, 98.88°W
Report Text: KCVB 251915Z AUTO 31003KT 7SM CLR 31/12 A3014 RMK AO2 T03090115
Loading
Personal Weather Stations






























Interactive Weather Map
Tropical Storm Tracking
New forecast layout! Learn more

10-Day Weather Forecast

Advertisements
Track Severe Weather on mobile